createdAt,value
2018-12-17T00:01:43.435Z,76.84
2018-12-17T00:04:12.648Z,76.98
2018-12-17T00:06:42.091Z,76.94
2018-12-17T00:09:11.365Z,77.12
2018-12-17T00:11:40.514Z,76.95
2018-12-17T00:14:09.601Z,77.13
2018-12-17T00:16:38.760Z,77.17
2018-12-17T00:19:08.070Z,77.47
2018-12-17T00:21:38.406Z,77.43
2018-12-17T00:24:07.562Z,77.38
2018-12-17T00:26:36.691Z,77.26
2018-12-17T00:29:06.321Z,77.27
2018-12-17T00:31:35.533Z,77.49
2018-12-17T00:34:04.613Z,77.30
2018-12-17T00:36:33.794Z,77.65
2018-12-17T00:39:02.957Z,77.50
2018-12-17T00:41:32.037Z,77.50
2018-12-17T00:44:01.116Z,77.29
2018-12-17T00:46:30.284Z,77.24
2018-12-17T00:48:59.474Z,77.39
2018-12-17T00:51:28.580Z,77.05
2018-12-17T00:53:57.663Z,76.69
2018-12-17T00:56:26.770Z,76.62
2018-12-17T00:58:56.087Z,76.65
2018-12-17T01:01:25.944Z,76.58
2018-12-17T01:03:55.189Z,76.73
2018-12-17T01:06:24.286Z,76.77
2018-12-17T01:08:53.417Z,76.87
2018-12-17T01:11:22.527Z,76.71
2018-12-17T01:13:51.674Z,76.95
2018-12-17T01:16:20.894Z,76.88
2018-12-17T01:18:49.951Z,76.86
2018-12-17T01:21:19.315Z,76.85
2018-12-17T01:23:48.571Z,76.75
2018-12-17T01:26:17.805Z,76.77
2018-12-17T01:28:47.057Z,76.81
2018-12-17T01:31:16.369Z,77.02
2018-12-17T01:33:45.616Z,77.04
2018-12-17T01:36:14.817Z,77.17
2018-12-17T01:38:44.071Z,77.13
2018-12-17T01:41:13.218Z,77.16
2018-12-17T01:43:42.338Z,77.15
2018-12-17T01:46:11.427Z,76.82
2018-12-17T01:48:40.641Z,76.98
2018-12-17T01:51:09.912Z,76.79
2018-12-17T01:53:42.138Z,76.89
2018-12-17T01:56:11.311Z,77.04
2018-12-17T01:58:40.468Z,76.64
2018-12-17T02:01:09.542Z,76.56
2018-12-17T02:03:38.650Z,76.49
2018-12-17T02:06:07.986Z,76.54
2018-12-17T02:08:37.359Z,76.70
2018-12-17T02:11:06.458Z,76.63
2018-12-17T02:13:36.597Z,76.85
2018-12-17T02:16:05.784Z,76.93
2018-12-17T02:18:34.885Z,77.01
2018-12-17T02:21:04.083Z,77.27
2018-12-17T02:23:34.184Z,77.30
2018-12-17T02:26:04.377Z,77.34
2018-12-17T02:28:36.293Z,77.30
2018-12-17T02:31:02.700Z,77.41
2018-12-17T02:33:31.857Z,77.60
2018-12-17T02:36:01.052Z,77.65
2018-12-17T02:38:30.195Z,77.56
2018-12-17T02:40:59.401Z,77.30
2018-12-17T02:43:28.592Z,77.46
2018-12-17T02:45:57.788Z,77.29
2018-12-17T02:48:26.936Z,77.16
2018-12-17T02:50:56.105Z,77.32
2018-12-17T02:53:25.182Z,77.21
2018-12-17T02:55:54.386Z,77.32
2018-12-17T02:58:24.600Z,77.12
2018-12-17T03:00:53.734Z,77.30
2018-12-17T03:03:22.829Z,77.39
2018-12-17T03:05:52.121Z,77.48
2018-12-17T03:08:22.153Z,77.48
2018-12-17T03:10:51.366Z,77.39
2018-12-17T03:13:20.646Z,77.45
2018-12-17T03:15:49.702Z,77.42
2018-12-17T03:18:18.876Z,77.31
2018-12-17T03:20:47.906Z,77.22
2018-12-17T03:23:17.052Z,77.34
2018-12-17T03:25:46.200Z,77.35
2018-12-17T03:28:15.295Z,77.46
2018-12-17T03:30:44.683Z,77.36
2018-12-17T03:33:13.814Z,77.40
2018-12-17T03:35:42.923Z,77.51
2018-12-17T03:38:12.000Z,77.30
2018-12-17T03:40:41.094Z,77.61
2018-12-17T03:43:10.171Z,77.39
2018-12-17T03:45:39.435Z,77.49
2018-12-17T03:48:08.568Z,77.37
2018-12-17T03:50:37.774Z,77.69
2018-12-17T03:53:06.862Z,77.69
2018-12-17T03:55:36.144Z,77.69
2018-12-17T03:58:05.275Z,77.73
2018-12-17T04:00:34.430Z,77.76
2018-12-17T04:03:03.760Z,77.74
2018-12-17T04:05:32.919Z,77.83
2018-12-17T04:08:02.064Z,77.66
2018-12-17T04:10:31.363Z,77.75
2018-12-17T04:13:00.493Z,77.80
2018-12-17T04:15:29.866Z,78.15
2018-12-17T04:17:59.008Z,78.17
2018-12-17T04:20:29.214Z,78.09
2018-12-17T04:22:58.427Z,78.21
2018-12-17T04:25:27.502Z,78.35
2018-12-17T04:27:56.618Z,78.02
2018-12-17T04:30:25.724Z,77.98
2018-12-17T04:32:54.811Z,77.91
2018-12-17T04:35:23.906Z,77.87
2018-12-17T04:37:53.012Z,78.03
2018-12-17T04:40:22.582Z,77.93
2018-12-17T04:42:51.763Z,78.21
2018-12-17T04:45:20.921Z,78.45
2018-12-17T04:47:50.957Z,78.30
2018-12-17T04:50:20.418Z,78.46
2018-12-17T04:52:49.494Z,78.36
2018-12-17T04:55:19.201Z,78.63
2018-12-17T04:57:48.383Z,78.31
2018-12-17T05:00:17.627Z,78.44
2018-12-17T05:02:46.822Z,78.31
2018-12-17T05:05:15.938Z,78.31
2018-12-17T05:07:45.145Z,78.18
2018-12-17T05:10:14.232Z,78.39
2018-12-17T05:12:43.382Z,78.60
2018-12-17T05:15:12.576Z,78.64
2018-12-17T05:17:41.652Z,78.56
2018-12-17T05:20:11.222Z,78.58
2018-12-17T05:22:40.321Z,78.54
2018-12-17T05:25:09.514Z,78.68
2018-12-17T05:27:38.564Z,78.45
2018-12-17T05:30:08.741Z,78.78
2018-12-17T05:32:37.912Z,78.86
2018-12-17T05:35:07.201Z,78.75
2018-12-17T05:37:36.337Z,78.93
2018-12-17T05:40:06.222Z,78.90
2018-12-17T05:42:35.425Z,78.83
2018-12-17T05:45:05.008Z,78.88
2018-12-17T05:47:34.130Z,79.07
2018-12-17T05:50:03.223Z,79.16
2018-12-17T05:52:32.334Z,79.13
2018-12-17T05:55:01.414Z,79.01
2018-12-17T05:57:30.510Z,79.07
2018-12-17T05:59:59.783Z,79.06
2018-12-17T06:02:28.834Z,79.16
2018-12-17T06:04:58.012Z,78.99
2018-12-17T06:07:27.172Z,79.19
2018-12-17T06:09:56.344Z,79.04
2018-12-17T06:12:25.978Z,79.31
2018-12-17T06:14:55.165Z,79.42
2018-12-17T06:17:24.457Z,79.41
2018-12-17T06:19:53.615Z,79.20
2018-12-17T06:22:22.704Z,79.46
2018-12-17T06:24:51.741Z,79.25
2018-12-17T06:27:20.818Z,79.59
2018-12-17T06:29:49.914Z,79.59
2018-12-17T06:32:19.085Z,79.34
2018-12-17T06:34:48.292Z,79.34
2018-12-17T06:37:17.395Z,79.39
2018-12-17T06:39:46.625Z,79.25
2018-12-17T06:42:15.946Z,79.27
2018-12-17T06:44:45.180Z,79.26
2018-12-17T06:47:14.319Z,79.38
2018-12-17T06:49:43.996Z,79.62
2018-12-17T06:52:13.124Z,79.74
2018-12-17T06:54:43.241Z,79.68
2018-12-17T06:57:12.347Z,79.41
2018-12-17T06:59:42.868Z,79.55
2018-12-17T07:02:10.960Z,79.32
2018-12-17T07:04:40.124Z,79.37
2018-12-17T07:07:09.212Z,79.15
2018-12-17T07:09:38.312Z,79.35
2018-12-17T07:12:07.695Z,79.40
2018-12-17T07:14:36.871Z,79.41
2018-12-17T07:17:07.228Z,79.40
2018-12-17T07:19:36.520Z,79.45
2018-12-17T07:22:05.756Z,79.42
2018-12-17T07:24:34.860Z,79.20
2018-12-17T07:27:04.085Z,79.08
2018-12-17T07:29:33.965Z,79.13
2018-12-17T07:32:03.126Z,78.98
2018-12-17T07:34:32.444Z,79.11
2018-12-17T07:37:02.044Z,79.16
2018-12-17T07:39:31.448Z,79.28
2018-12-17T07:42:00.654Z,79.41
2018-12-17T07:44:33.745Z,79.64
2018-12-17T07:47:02.937Z,79.43
2018-12-17T07:49:32.377Z,79.54
2018-12-17T07:52:01.515Z,79.71
2018-12-17T07:54:30.749Z,79.63
2018-12-17T07:57:00.035Z,79.66
2018-12-17T07:59:29.126Z,79.44
2018-12-17T08:01:59.159Z,79.83
2018-12-17T08:04:27.736Z,79.86
2018-12-17T08:06:56.928Z,79.61
2018-12-17T08:09:26.286Z,79.55
2018-12-17T08:11:55.444Z,79.63
2018-12-17T08:14:24.535Z,80.04
2018-12-17T08:16:54.059Z,79.86
2018-12-17T08:19:23.159Z,79.75
2018-12-17T08:21:52.613Z,79.76
2018-12-17T08:24:21.882Z,79.81
2018-12-17T08:26:51.363Z,79.68
2018-12-17T08:29:20.512Z,79.72
2018-12-17T08:31:54.917Z,79.72
2018-12-17T08:34:24.066Z,79.49
2018-12-17T08:39:48.532Z,79.81
2018-12-17T08:42:17.879Z,79.73
2018-12-17T08:44:47.131Z,79.73
2018-12-17T08:47:16.533Z,79.94
2018-12-17T08:49:52.799Z,79.63
2018-12-17T08:52:23.552Z,79.90
2018-12-17T08:54:53.446Z,79.81
2018-12-17T08:57:22.706Z,79.87
2018-12-17T08:59:52.517Z,79.86
2018-12-17T09:02:23.045Z,79.82
2018-12-17T09:04:52.514Z,79.77
2018-12-17T09:07:26.717Z,79.84
2018-12-17T09:09:55.817Z,79.80
2018-12-17T09:12:38.961Z,79.79
2018-12-17T09:15:08.902Z,79.57
2018-12-17T09:17:38.114Z,79.36
2018-12-17T09:20:08.713Z,79.56
2018-12-17T09:22:39.010Z,79.47
2018-12-17T09:25:14.560Z,79.46
2018-12-17T09:27:43.821Z,79.51
2018-12-17T09:30:18.269Z,79.37
2018-12-17T09:32:42.951Z,79.43
2018-12-17T09:35:12.163Z,79.30
2018-12-17T09:37:41.530Z,79.32
2018-12-17T09:40:10.952Z,79.28
2018-12-17T09:42:40.391Z,79.06
2018-12-17T09:45:16.191Z,79.11
2018-12-17T09:47:45.672Z,78.92
2018-12-17T09:50:16.702Z,78.91
2018-12-17T09:52:45.385Z,78.97
2018-12-17T09:55:14.532Z,78.99
2018-12-17T09:57:43.850Z,79.14
2018-12-17T10:00:14.074Z,78.95
2018-12-17T10:02:47.115Z,79.06
2018-12-17T10:05:16.762Z,78.84
2018-12-17T10:07:46.052Z,79.02
2018-12-17T10:10:16.139Z,78.98
2018-12-17T10:12:45.378Z,79.04
2018-12-17T10:15:15.801Z,79.00
2018-12-17T10:17:45.047Z,79.05
2018-12-17T10:20:15.286Z,79.14
2018-12-17T10:22:44.460Z,79.08
2018-12-17T10:25:14.224Z,79.02
2018-12-17T10:27:43.716Z,79.05
2018-12-17T10:30:12.881Z,78.77
2018-12-17T10:32:42.131Z,78.79
2018-12-17T10:35:11.336Z,78.86
2018-12-17T10:37:41.197Z,78.86
2018-12-17T10:40:10.660Z,78.52
2018-12-17T10:42:39.828Z,78.56
2018-12-17T10:45:10.451Z,78.68
2018-12-17T10:47:39.822Z,78.24
2018-12-17T10:50:56.263Z,78.34
2018-12-17T10:53:33.936Z,78.19
2018-12-17T10:56:03.121Z,78.10
2018-12-17T10:58:33.378Z,78.11
2018-12-17T11:02:05.452Z,77.95
2018-12-17T11:04:38.678Z,77.91
2018-12-17T11:07:09.262Z,77.97
2018-12-17T11:09:41.680Z,78.09
2018-12-17T11:16:38.022Z,77.84
2018-12-17T11:19:10.198Z,77.81
2018-12-17T11:21:39.763Z,77.86
2018-12-17T11:24:10.158Z,77.78
2018-12-17T11:26:39.638Z,77.82
2018-12-17T11:29:09.047Z,77.77
2018-12-17T11:31:42.671Z,77.85
2018-12-17T11:37:29.990Z,77.95
2018-12-17T11:39:59.485Z,77.70
2018-12-17T11:42:28.771Z,77.77
2018-12-17T11:44:59.002Z,77.52
2018-12-17T11:47:28.277Z,77.57
2018-12-17T11:49:58.583Z,77.56
2018-12-17T11:52:32.127Z,77.56
2018-12-17T11:55:03.842Z,77.54
2018-12-17T11:58:00.179Z,77.38
2018-12-17T12:00:30.511Z,77.26
2018-12-17T12:02:59.815Z,77.56
2018-12-17T12:05:30.127Z,77.15
2018-12-17T12:08:00.172Z,77.35
2018-12-17T12:10:29.697Z,77.42
2018-12-17T12:13:00.290Z,77.26
2018-12-17T12:15:29.528Z,77.29
2018-12-17T12:17:58.779Z,77.29
2018-12-17T12:20:29.886Z,77.22
2018-12-17T12:22:59.562Z,77.09
2018-12-17T12:25:29.048Z,77.07
2018-12-17T12:27:59.100Z,76.90
2018-12-17T12:30:43.311Z,77.06
2018-12-17T12:33:12.897Z,76.87
2018-12-17T12:35:47.520Z,77.06
2018-12-17T12:38:16.960Z,77.19
2018-12-17T12:40:48.058Z,77.12
2018-12-17T12:43:17.309Z,76.99
2018-12-17T12:45:47.191Z,77.14
2018-12-17T12:48:16.329Z,77.15
2018-12-17T12:50:46.067Z,77.21
2018-12-17T12:53:15.929Z,77.22
2018-12-17T12:55:45.267Z,77.30
2018-12-17T12:58:15.801Z,77.08
2018-12-17T13:00:45.139Z,77.19
2018-12-17T13:03:14.816Z,76.97
2018-12-17T13:05:44.044Z,76.92
2018-12-17T13:08:14.680Z,77.10
2018-12-17T13:10:43.976Z,77.05
2018-12-17T13:13:13.157Z,77.24
2018-12-17T13:15:42.434Z,76.98
2018-12-17T13:18:11.719Z,77.08
2018-12-17T13:20:40.925Z,77.26
2018-12-17T13:23:10.037Z,77.24
2018-12-17T13:25:40.896Z,77.38
2018-12-17T13:28:10.100Z,77.10
2018-12-17T13:30:39.258Z,77.28
2018-12-17T13:33:08.463Z,77.33
2018-12-17T13:35:37.674Z,77.17
2018-12-17T13:38:07.060Z,77.34
2018-12-17T13:44:09.057Z,77.23
2018-12-17T13:46:38.757Z,77.13
2018-12-17T13:49:08.366Z,77.29
2018-12-17T13:51:42.517Z,77.27
2018-12-17T13:54:13.320Z,77.33
2018-12-17T13:56:43.063Z,77.34
2018-12-17T13:59:13.151Z,77.22
2018-12-17T14:01:51.344Z,77.08
2018-12-17T14:04:16.716Z,77.18
2018-12-17T14:06:46.008Z,77.36
2018-12-17T14:09:15.617Z,77.27
2018-12-17T14:11:46.100Z,77.32
2018-12-17T14:14:16.779Z,77.41
2018-12-17T14:16:52.096Z,77.61
2018-12-17T14:19:27.670Z,77.50
2018-12-17T14:22:00.314Z,77.36
2018-12-17T14:24:30.945Z,77.42
2018-12-17T14:27:02.010Z,77.70
2018-12-17T14:29:30.300Z,77.46
2018-12-17T14:32:00.261Z,77.53
2018-12-17T14:34:29.668Z,77.51
2018-12-17T14:37:12.430Z,77.62
2018-12-17T14:39:41.887Z,77.47
2018-12-17T14:42:11.655Z,77.37
2018-12-17T14:44:42.083Z,77.39
2018-12-17T14:47:11.775Z,77.61
2018-12-17T14:49:40.932Z,77.35
2018-12-17T14:52:10.534Z,77.52
2018-12-17T14:54:39.748Z,77.40
2018-12-17T14:57:10.611Z,77.39
2018-12-17T14:59:41.032Z,77.65
2018-12-17T15:02:10.185Z,77.57
2018-12-17T15:04:40.886Z,77.37
2018-12-17T15:07:10.994Z,77.50
2018-12-17T15:09:41.779Z,77.32
2018-12-17T15:12:11.136Z,77.35
2018-12-17T15:14:40.553Z,77.43
2018-12-17T15:17:10.703Z,77.45
2018-12-17T15:19:40.191Z,77.54
2018-12-17T15:22:09.947Z,77.62
2018-12-17T15:24:41.642Z,77.47
2018-12-17T15:27:11.271Z,77.35
2018-12-17T15:29:40.387Z,77.36
2018-12-17T15:32:10.595Z,77.60
2018-12-17T15:34:40.983Z,77.32
2018-12-17T15:37:10.510Z,77.65
2018-12-17T15:39:58.699Z,77.69
2018-12-17T15:42:28.147Z,77.58
2018-12-17T15:44:58.057Z,77.67
2018-12-17T15:47:28.453Z,77.64
2018-12-17T15:49:57.988Z,77.54
2018-12-17T15:52:28.314Z,77.56
2018-12-17T15:54:58.200Z,77.52
2018-12-17T15:57:28.407Z,77.50
2018-12-17T15:59:58.998Z,77.55
2018-12-17T16:02:28.290Z,77.52
2018-12-17T16:04:57.399Z,77.59
2018-12-17T16:07:27.179Z,77.71
2018-12-17T16:09:56.890Z,77.84
2018-12-17T16:12:26.292Z,77.95
2018-12-17T16:14:55.676Z,77.80
2018-12-17T16:17:26.181Z,77.89
2018-12-17T16:19:55.315Z,77.82
2018-12-17T16:22:24.560Z,78.16
2018-12-17T16:24:53.923Z,78.14
2018-12-17T16:27:23.110Z,78.11
2018-12-17T16:29:52.931Z,77.81
2018-12-17T16:32:23.618Z,78.04
2018-12-17T16:34:53.244Z,77.85
2018-12-17T16:37:22.644Z,77.98
2018-12-17T16:39:52.130Z,78.00
2018-12-17T16:42:21.431Z,78.17
2018-12-17T16:44:51.340Z,78.05
2018-12-17T16:47:21.204Z,77.85
2018-12-17T16:49:50.405Z,78.16
2018-12-17T16:52:19.665Z,77.90
2018-12-17T16:54:49.658Z,77.90
2018-12-17T16:57:18.862Z,78.02
2018-12-17T16:59:48.008Z,77.86
2018-12-17T17:02:17.303Z,78.19
2018-12-17T17:04:46.540Z,77.95
2018-12-17T17:07:15.619Z,78.03
2018-12-17T17:09:44.751Z,78.09
2018-12-17T17:12:13.837Z,77.92
2018-12-17T17:14:43.351Z,78.10
2018-12-17T17:17:12.500Z,78.20
2018-12-17T17:19:41.530Z,78.17
2018-12-17T17:22:11.102Z,78.23
2018-12-17T17:24:40.271Z,78.03
2018-12-17T17:27:09.412Z,78.12
2018-12-17T17:29:45.155Z,77.97
2018-12-17T17:32:14.295Z,77.86
2018-12-17T17:34:44.090Z,78.03
2018-12-17T17:37:14.100Z,78.07
2018-12-17T17:39:43.357Z,78.04
2018-12-17T17:42:13.038Z,78.19
2018-12-17T17:44:42.263Z,78.44
2018-12-17T17:47:11.435Z,78.51
2018-12-17T17:49:40.534Z,78.45
2018-12-17T17:52:10.687Z,78.63
2018-12-17T17:54:39.835Z,78.50
2018-12-17T17:57:08.949Z,78.55
2018-12-17T17:59:38.666Z,78.78
2018-12-17T18:02:07.914Z,78.86
2018-12-17T18:04:38.088Z,78.92
2018-12-17T18:07:07.397Z,79.17
2018-12-17T18:09:36.518Z,79.07
2018-12-17T18:12:05.563Z,79.10
2018-12-17T18:14:34.661Z,79.03
2018-12-17T18:17:05.164Z,78.79
2018-12-17T18:19:34.375Z,78.88
2018-12-17T18:22:03.714Z,78.83
2018-12-17T18:24:32.819Z,78.91
2018-12-17T18:27:01.916Z,78.96
2018-12-17T18:29:31.071Z,78.87
2018-12-17T18:32:00.184Z,78.91
2018-12-17T18:34:29.254Z,78.87
2018-12-17T18:36:59.006Z,78.85
2018-12-17T18:39:29.416Z,78.78
2018-12-17T18:41:59.103Z,78.99
2018-12-17T18:44:28.410Z,79.07
2018-12-17T18:46:57.671Z,79.22
2018-12-17T18:49:26.824Z,79.13
2018-12-17T18:51:55.961Z,79.20
2018-12-17T18:54:25.074Z,79.00
2018-12-17T18:56:54.908Z,79.23
2018-12-17T18:59:25.512Z,79.12
2018-12-17T19:01:54.566Z,78.99
2018-12-17T19:04:23.725Z,79.02
2018-12-17T19:06:53.339Z,78.94
2018-12-17T19:09:24.052Z,78.72
2018-12-17T19:11:55.683Z,78.67
2018-12-17T19:14:24.902Z,78.94
2018-12-17T19:16:54.017Z,78.63
2018-12-17T19:19:23.511Z,78.64
2018-12-17T19:21:52.639Z,78.76
2018-12-17T19:24:22.099Z,78.68
2018-12-17T19:26:51.291Z,78.59
2018-12-17T19:29:21.140Z,78.46
2018-12-17T19:31:56.810Z,78.75
2018-12-17T19:34:26.015Z,78.48
2018-12-17T19:36:55.163Z,78.63
2018-12-17T19:39:24.431Z,78.56
2018-12-17T19:41:53.542Z,78.48
2018-12-17T19:44:22.801Z,78.47
2018-12-17T19:46:52.014Z,78.40
2018-12-17T19:49:21.156Z,78.45
2018-12-17T19:51:50.353Z,78.33
2018-12-17T19:54:19.499Z,78.33
2018-12-17T19:56:49.561Z,78.34
2018-12-17T19:59:18.649Z,78.40
2018-12-17T20:01:47.959Z,78.16
2018-12-17T20:04:17.177Z,78.38
2018-12-17T20:06:46.460Z,78.32
2018-12-17T20:09:19.144Z,78.13
2018-12-17T20:11:48.642Z,78.26
2018-12-17T20:14:18.766Z,78.12
2018-12-17T20:16:56.854Z,78.13
2018-12-17T20:19:26.159Z,78.32
2018-12-17T20:21:55.201Z,78.09
2018-12-17T20:24:24.347Z,78.16
2018-12-17T20:26:55.150Z,78.42
2018-12-17T20:29:27.152Z,78.42
2018-12-17T20:31:56.568Z,78.20
2018-12-17T20:34:31.400Z,78.25
2018-12-17T20:37:04.806Z,78.08
2018-12-17T20:39:36.260Z,78.11
2018-12-17T20:42:11.181Z,78.09
2018-12-17T20:44:41.074Z,78.18
2018-12-17T20:47:11.136Z,78.31
2018-12-17T20:49:40.997Z,78.26
2018-12-17T20:52:10.558Z,77.99
2018-12-17T20:54:42.645Z,78.09
2018-12-17T20:57:11.934Z,78.14
2018-12-17T20:59:42.620Z,78.49
2018-12-17T21:02:15.720Z,78.53
2018-12-17T21:04:48.754Z,78.38
2018-12-17T21:07:17.861Z,78.33
2018-12-17T21:09:47.134Z,78.21
2018-12-17T21:12:16.531Z,78.30
2018-12-17T21:14:45.772Z,78.29
2018-12-17T21:17:15.546Z,78.23
2018-12-17T21:19:44.662Z,78.39
2018-12-17T21:22:13.835Z,78.16
2018-12-17T21:24:42.934Z,78.15
2018-12-17T21:27:12.069Z,78.27
2018-12-17T21:29:41.882Z,77.99
2018-12-17T21:32:10.989Z,78.05
2018-12-17T21:34:40.131Z,77.85
2018-12-17T21:37:10.200Z,77.88
2018-12-17T21:39:39.354Z,77.90
2018-12-17T21:42:08.583Z,78.02
2018-12-17T21:44:37.896Z,77.92
2018-12-17T21:47:07.089Z,77.94
2018-12-17T21:49:36.466Z,77.85
2018-12-17T21:52:05.674Z,77.88
2018-12-17T21:54:35.185Z,77.79
2018-12-17T21:57:04.365Z,77.95
2018-12-17T21:59:33.616Z,77.87
2018-12-17T22:02:02.729Z,77.76
2018-12-17T22:04:31.854Z,77.83
2018-12-17T22:07:00.960Z,77.80
2018-12-17T22:09:30.123Z,77.61
2018-12-17T22:11:59.199Z,77.60
2018-12-17T22:14:28.294Z,77.33
2018-12-17T22:16:57.677Z,77.68
2018-12-17T22:19:27.611Z,77.40
2018-12-17T22:21:56.724Z,77.22
2018-12-17T22:24:25.866Z,77.12
2018-12-17T22:26:55.061Z,77.13
2018-12-17T22:29:24.279Z,77.05
2018-12-17T22:31:53.394Z,77.27
2018-12-17T22:34:22.868Z,77.25
2018-12-17T22:36:52.055Z,77.05
2018-12-17T22:39:21.359Z,77.22
2018-12-17T22:41:50.472Z,76.96
2018-12-17T22:44:19.708Z,76.78
2018-12-17T22:46:49.108Z,76.95
2018-12-17T22:49:18.295Z,76.84
2018-12-17T22:51:51.385Z,76.76
2018-12-17T22:54:20.616Z,76.76
2018-12-17T22:56:49.996Z,76.93
2018-12-17T22:59:19.159Z,76.71
2018-12-17T23:01:48.303Z,76.84
2018-12-17T23:04:17.394Z,76.86
2018-12-17T23:06:46.752Z,76.75
2018-12-17T23:09:14.311Z,76.95
2018-12-17T23:11:59.484Z,76.88
2018-12-17T23:14:39.791Z,76.71
2018-12-17T23:17:20.749Z,76.87
2018-12-17T23:19:50.300Z,77.23
2018-12-17T23:22:19.640Z,76.96
2018-12-17T23:24:49.269Z,77.10
2018-12-17T23:27:18.479Z,77.04
2018-12-17T23:29:47.651Z,76.98
2018-12-17T23:32:16.963Z,76.91
2018-12-17T23:34:46.747Z,76.72
2018-12-17T23:37:15.855Z,76.94
2018-12-17T23:39:45.175Z,77.07
2018-12-17T23:42:14.280Z,77.04
2018-12-17T23:44:43.468Z,76.95
2018-12-17T23:47:12.565Z,76.99
2018-12-17T23:49:41.779Z,77.01
2018-12-17T23:52:10.897Z,77.08
2018-12-17T23:54:40.102Z,77.09
2018-12-17T23:57:10.424Z,77.20
2018-12-17T23:59:39.597Z,77.03
